Time;durP1;ratioP1;P1;durP2;ratioP2;P2;SDS_P1;SDS_P2;PMS_P1;PMS_P2;Temp;Humidity;BMP_temperature;BMP_pressure;BME280_temperature;BME280_humidity;BME280_pressure;Samples;Min_cycle;Max_cycle;Signal;HPM_P1;HPM_P2
2022/01/27 00:04:12;;;;;;;9.05;4.10;;;;;;;;;;5051568;28;20025;-67
2022/01/27 00:06:39;;;;;;;6.90;3.85;;;;;;;;;;5051700;28;20017;-67
2022/01/27 00:09:25;;;;;;;10.02;4.28;;;;;;;;;;5051504;28;20025;-68
2022/01/27 00:11:51;;;;;;;10.02;4.28;;;;;;;;;;5051659;28;20032;-68
2022/01/27 00:14:20;;;;;;;7.47;4.55;;;;;;;;;;5050138;28;20024;-67
2022/01/27 00:16:55;;;;;;;8.48;4.25;;;;;;;;;;5051381;28;20028;-67
2022/01/27 00:19:21;;;;;;;9.30;4.32;;;;;;;;;;5051419;28;20024;-68
2022/01/27 00:21:48;;;;;;;7.78;4.03;;;;;;;;;;5051425;28;20431;-67
2022/01/27 00:24:15;;;;;;;8.02;4.20;;;;;;;;;;5051492;28;20021;-68
2022/01/27 00:26:41;;;;;;;8.02;4.47;;;;;;;;;;5051331;28;20479;-70
2022/01/27 00:29:07;;;;;;;7.78;4.50;;;;;;;;;;5051339;28;20072;-68
2022/01/27 00:31:33;;;;;;;8.13;4.13;;;;;;;;;;5049410;28;20040;-67
2022/01/27 00:34:03;;;;;;;9.65;4.28;;;;;;;;;;5050054;28;20055;-68
2022/01/27 00:36:29;;;;;;;8.57;4.38;;;;;;;;;;5051424;28;20495;-69
2022/01/27 00:38:56;;;;;;;8.50;4.22;;;;;;;;;;5051476;28;20063;-67
2022/01/27 00:41:23;;;;;;;7.30;4.60;;;;;;;;;;5051483;28;20040;-67
2022/01/27 00:43:50;;;;;;;8.55;4.30;;;;;;;;;;5051230;28;20021;-67
2022/01/27 00:46:17;;;;;;;6.45;4.32;;;;;;;;;;5051462;28;20049;-67
2022/01/27 00:48:47;;;;;;;6.78;4.15;;;;;;;;;;5051147;28;20028;-67
2022/01/27 00:51:20;;;;;;;8.50;4.82;;;;;;;;;;5051246;28;20025;-67
2022/01/27 00:53:52;;;;;;;8.15;4.97;;;;;;;;;;5051001;28;20037;-68
2022/01/27 00:56:38;;;;;;;8.52;4.20;;;;;;;;;;5051195;28;20032;-68
2022/01/27 01:01:47;;;;;;;9.13;5.82;;;;;;;;;;5051289;28;20025;-67
2022/01/27 01:04:14;;;;;;;8.55;5.75;;;;;;;;;;5051169;28;20025;-67
2022/01/27 01:06:44;;;;;;;13.63;5.85;;;;;;;;;;5051087;28;20046;-67
2022/01/27 01:14:45;;;;;;;10.23;5.60;;;;;;;;;;5055119;28;20116;-67
2022/01/27 01:33:10;;;;;;;10.98;6.32;;;;;;;;;;5054678;28;20022;-68
2022/01/27 01:35:48;;;;;;;11.60;7.13;;;;;;;;;;5054779;28;20017;-68
2022/01/27 01:38:18;;;;;;;9.52;6.22;;;;;;;;;;5054795;28;20020;-67
2022/01/27 01:40:46;;;;;;;10.38;6.60;;;;;;;;;;5054795;28;20099;-67
2022/01/27 01:43:12;;;;;;;11.38;7.35;;;;;;;;;;5053218;28;20036;-68
2022/01/27 01:45:38;;;;;;;10.38;7.18;;;;;;;;;;5054478;28;20025;-67
2022/01/27 01:48:05;;;;;;;12.32;7.45;;;;;;;;;;5054447;28;20060;-66
2022/01/27 01:50:31;;;;;;;10.73;6.57;;;;;;;;;;5054305;28;20435;-67
2022/01/27 01:52:57;;;;;;;12.32;7.38;;;;;;;;;;5054341;28;20032;-67
2022/01/27 01:55:23;;;;;;;10.55;7.20;;;;;;;;;;5054423;28;20107;-66
2022/01/27 01:57:51;;;;;;;10.25;6.88;;;;;;;;;;5054284;28;20021;-68
2022/01/27 02:00:17;;;;;;;9.82;6.25;;;;;;;;;;5054193;28;20100;-67
2022/01/27 02:02:43;;;;;;;10.70;6.38;;;;;;;;;;5054285;28;20102;-67
2022/01/27 02:05:09;;;;;;;8.77;6.00;;;;;;;;;;5052836;28;20488;-68
2022/01/27 02:07:49;;;;;;;10.68;6.18;;;;;;;;;;5052452;28;20025;-67
2022/01/27 02:18:32;;;;;;;10.68;6.82;;;;;;;;;;5033922;28;20113;-67
2022/01/27 02:20:58;;;;;;;11.63;6.93;;;;;;;;;;5033215;28;20074;-67
2022/01/27 02:23:24;;;;;;;9.48;6.35;;;;;;;;;;5033291;28;20071;-67
2022/01/27 02:25:51;;;;;;;11.02;7.07;;;;;;;;;;5033776;28;20049;-66
2022/01/27 02:28:17;;;;;;;10.57;6.80;;;;;;;;;;5033818;28;20064;-67
2022/01/27 02:30:43;;;;;;;10.77;6.22;;;;;;;;;;5033753;28;20037;-67
2022/01/27 02:33:09;;;;;;;9.82;6.85;;;;;;;;;;5050100;28;20032;-67
2022/01/27 02:35:35;;;;;;;12.15;7.43;;;;;;;;;;5053609;28;20021;-67
2022/01/27 02:38:01;;;;;;;10.93;6.78;;;;;;;;;;5053633;28;20598;-67
2022/01/27 02:40:28;;;;;;;12.05;7.22;;;;;;;;;;5053438;28;20512;-66
2022/01/27 02:42:54;;;;;;;12.50;7.38;;;;;;;;;;5053516;28;20549;-66
2022/01/27 02:45:39;;;;;;;12.63;7.10;;;;;;;;;;5053485;28;20055;-67
2022/01/27 02:48:05;;;;;;;11.35;7.07;;;;;;;;;;5053371;28;20025;-67
2022/01/27 02:50:31;;;;;;;10.95;7.28;;;;;;;;;;5053305;28;20087;-67
2022/01/27 02:52:57;;;;;;;12.35;7.32;;;;;;;;;;5053247;28;20100;-66
2022/01/27 02:55:23;;;;;;;10.15;6.43;;;;;;;;;;5053163;28;20495;-66
2022/01/27 02:57:49;;;;;;;10.05;6.68;;;;;;;;;;5052955;28;20109;-67
2022/01/27 03:00:16;;;;;;;10.30;6.80;;;;;;;;;;5053016;28;20048;-67
2022/01/27 03:02:42;;;;;;;11.20;6.95;;;;;;;;;;5051846;28;20438;-67
2022/01/27 03:05:08;;;;;;;10.45;6.88;;;;;;;;;;5053030;28;20365;-66
2022/01/27 03:07:34;;;;;;;11.85;6.85;;;;;;;;;;5052973;28;20091;-69
2022/01/27 03:10:00;;;;;;;9.75;5.95;;;;;;;;;;5051611;28;20068;-68
2022/01/27 03:12:28;;;;;;;10.75;6.43;;;;;;;;;;5053105;28;20547;-68
2022/01/27 03:14:54;;;;;;;11.07;7.38;;;;;;;;;;5052820;28;20036;-68
2022/01/27 03:17:20;;;;;;;11.30;6.40;;;;;;;;;;5051583;28;20021;-68
2022/01/27 03:19:47;;;;;;;11.45;6.43;;;;;;;;;;5052833;28;20468;-67
2022/01/27 03:22:13;;;;;;;11.32;7.18;;;;;;;;;;5051234;28;20077;-67
2022/01/27 03:24:39;;;;;;;10.43;6.90;;;;;;;;;;5052506;28;20499;-68
2022/01/27 03:27:13;;;;;;;10.30;6.22;;;;;;;;;;5052492;28;20021;-68
2022/01/27 03:29:39;;;;;;;10.60;6.93;;;;;;;;;;5052016;28;20037;-69
2022/01/27 03:32:05;;;;;;;11.77;7.13;;;;;;;;;;5052060;28;20055;-69
2022/01/27 03:34:31;;;;;;;12.38;7.32;;;;;;;;;;5052051;28;20021;-69
2022/01/27 03:36:57;;;;;;;10.63;6.45;;;;;;;;;;5052539;28;20590;-69
2022/01/27 03:39:24;;;;;;;11.45;7.72;;;;;;;;;;5051104;28;20032;-67
2022/01/27 03:41:51;;;;;;;9.48;6.55;;;;;;;;;;5051356;28;20025;-66
2022/01/27 03:44:18;;;;;;;10.20;6.82;;;;;;;;;;5032271;28;20026;-66
2022/01/27 03:46:44;;;;;;;11.43;6.72;;;;;;;;;;5031018;28;20018;-67
2022/01/27 03:49:10;;;;;;;13.07;7.40;;;;;;;;;;5032302;28;20038;-67
2022/01/27 03:51:36;;;;;;;11.90;6.57;;;;;;;;;;5032120;28;20537;-68
2022/01/27 03:54:02;;;;;;;11.85;6.72;;;;;;;;;;5030770;28;20022;-67
2022/01/27 03:56:28;;;;;;;12.90;6.57;;;;;;;;;;5032269;28;20103;-68
2022/01/27 03:58:54;;;;;;;11.32;7.18;;;;;;;;;;5032192;28;20052;-67
2022/01/27 04:01:20;;;;;;;11.98;7.32;;;;;;;;;;5032069;28;20022;-68
2022/01/27 04:03:46;;;;;;;12.05;7.30;;;;;;;;;;5031974;28;20094;-68
2022/01/27 04:06:19;;;;;;;12.27;6.95;;;;;;;;;;5031966;28;20100;-68
2022/01/27 04:08:45;;;;;;;;;;;;;;;;;;5032356;28;20029;-69
2022/01/27 04:11:11;;;;;;;11.05;6.68;;;;;;;;;;5032018;28;20287;-69
2022/01/27 04:13:37;;;;;;;13.00;8.05;;;;;;;;;;5030558;28;20550;-69
2022/01/27 04:16:06;;;;;;;11.55;6.93;;;;;;;;;;5031776;28;20056;-68
2022/01/27 04:18:33;;;;;;;11.10;6.85;;;;;;;;;;5031858;28;20024;-69
2022/01/27 04:20:59;;;;;;;10.05;6.70;;;;;;;;;;5031527;28;20042;-68
2022/01/27 04:23:25;;;;;;;10.07;6.15;;;;;;;;;;5031558;28;20030;-67
2022/01/27 04:25:51;;;;;;;10.23;6.32;;;;;;;;;;5031703;28;20022;-69
2022/01/27 04:28:24;;;;;;;10.75;7.07;;;;;;;;;;5031551;28;20423;-70
2022/01/27 04:30:53;;;;;;;8.80;5.97;;;;;;;;;;5031688;28;20033;-69
2022/01/27 04:33:23;;;;;;;12.90;6.45;;;;;;;;;;5031649;28;20017;-69
2022/01/27 04:35:50;;;;;;;9.93;6.60;;;;;;;;;;5031554;28;20109;-69
2022/01/27 04:38:23;;;;;;;13.07;7.25;;;;;;;;;;5031529;28;20040;-68
2022/01/27 04:48:23;;;;;;;11.63;6.30;;;;;;;;;;5031633;28;20030;-66
2022/01/27 04:50:51;;;;;;;8.68;5.78;;;;;;;;;;5031307;28;20125;-66
2022/01/27 04:53:25;;;;;;;9.35;5.93;;;;;;;;;;5031422;28;20021;-65
2022/01/27 04:55:51;;;;;;;10.85;6.57;;;;;;;;;;5031357;28;20021;-65
2022/01/27 04:58:25;;;;;;;9.88;6.15;;;;;;;;;;5031376;28;20547;-66
2022/01/27 05:00:53;;;;;;;9.15;6.00;;;;;;;;;;5031195;28;20026;-65
2022/01/27 05:03:33;;;;;;;10.50;6.03;;;;;;;;;;5029954;28;20032;-66
2022/01/27 05:05:59;;;;;;;13.63;6.30;;;;;;;;;;5031329;28;20022;-68
2022/01/27 05:08:25;;;;;;;10.18;6.55;;;;;;;;;;5031435;28;20032;-68
2022/01/27 05:10:57;;;;;;;10.90;6.63;;;;;;;;;;5031246;28;20517;-68
2022/01/27 05:13:26;;;;;;;13.50;6.15;;;;;;;;;;5031057;28;20060;-68
2022/01/27 05:15:52;;;;;;;10.90;6.47;;;;;;;;;;5029842;28;20108;-68
2022/01/27 05:18:20;;;;;;;9.80;5.78;;;;;;;;;;5031114;28;20029;-68
2022/01/27 05:20:46;;;;;;;9.18;5.63;;;;;;;;;;5031080;28;20068;-69
2022/01/27 05:23:12;;;;;;;10.63;6.55;;;;;;;;;;5030990;28;20017;-68
2022/01/27 05:25:39;;;;;;;9.40;6.43;;;;;;;;;;5031037;28;20678;-68
2022/01/27 05:28:06;;;;;;;10.75;5.97;;;;;;;;;;5031096;28;20096;-69
2022/01/27 05:30:32;;;;;;;9.50;6.15;;;;;;;;;;5031017;28;20030;-68
2022/01/27 05:32:58;;;;;;;8.52;5.88;;;;;;;;;;5031118;28;20732;-69
2022/01/27 05:35:24;;;;;;;9.48;6.13;;;;;;;;;;5029806;28;20036;-69
2022/01/27 05:37:50;;;;;;;10.57;6.00;;;;;;;;;;5031104;28;20111;-68
2022/01/27 05:40:16;;;;;;;9.60;5.68;;;;;;;;;;5031000;28;20029;-69
2022/01/27 05:42:42;;;;;;;10.80;6.10;;;;;;;;;;5034125;28;20029;-69
2022/01/27 05:45:09;;;;;;;9.82;6.30;;;;;;;;;;5051073;28;20029;-69
2022/01/27 05:47:35;;;;;;;9.52;6.30;;;;;;;;;;5050900;28;20029;-67
2022/01/27 05:50:01;;;;;;;10.38;6.88;;;;;;;;;;5050750;28;20120;-67
2022/01/27 05:52:27;;;;;;;9.95;6.63;;;;;;;;;;5050594;28;20017;-67
2022/01/27 05:54:53;;;;;;;11.02;6.28;;;;;;;;;;5050605;28;20029;-66
2022/01/27 05:57:19;;;;;;;8.45;5.72;;;;;;;;;;5051981;28;20053;-66
2022/01/27 05:59:45;;;;;;;10.98;5.75;;;;;;;;;;5054131;28;20029;-67
2022/01/27 06:02:11;;;;;;;10.88;6.53;;;;;;;;;;5053971;28;20021;-67
2022/01/27 06:04:37;;;;;;;9.90;6.28;;;;;;;;;;5053671;28;20580;-67
2022/01/27 06:07:04;;;;;;;9.63;6.25;;;;;;;;;;5054110;28;20032;-66
2022/01/27 06:09:30;;;;;;;10.50;6.25;;;;;;;;;;5054047;28;20033;-67
2022/01/27 06:11:56;;;;;;;10.13;6.38;;;;;;;;;;5054080;28;20017;-66
2022/01/27 06:14:22;;;;;;;12.15;6.72;;;;;;;;;;5052649;28;20052;-66
2022/01/27 06:16:48;;;;;;;10.63;6.78;;;;;;;;;;5052737;28;20108;-66
2022/01/27 06:19:14;;;;;;;11.55;6.93;;;;;;;;;;5053716;28;20025;-66
2022/01/27 06:21:43;;;;;;;10.77;7.30;;;;;;;;;;5053642;28;20136;-70
2022/01/27 06:24:09;;;;;;;12.38;6.68;;;;;;;;;;5053672;28;20028;-70
2022/01/27 06:26:35;;;;;;;13.80;7.60;;;;;;;;;;5053703;28;20032;-67
2022/01/27 06:29:01;;;;;;;10.18;6.20;;;;;;;;;;5053648;28;20036;-68
2022/01/27 06:31:27;;;;;;;11.82;6.82;;;;;;;;;;5053419;28;20395;-67
2022/01/27 06:33:53;;;;;;;10.55;7.10;;;;;;;;;;5032870;28;20099;-67
2022/01/27 06:36:20;;;;;;;9.57;6.65;;;;;;;;;;5032011;28;20105;-66
2022/01/27 06:38:46;;;;;;;10.20;6.40;;;;;;;;;;5033157;28;20032;-67
2022/01/27 06:41:13;;;;;;;9.98;6.75;;;;;;;;;;5033617;28;20021;-68
2022/01/27 06:43:39;;;;;;;11.38;6.70;;;;;;;;;;5033401;28;20461;-67
2022/01/27 06:46:05;;;;;;;11.82;7.35;;;;;;;;;;5033301;28;20057;-66
2022/01/27 06:48:31;;;;;;;9.95;6.47;;;;;;;;;;5033247;28;20013;-66
2022/01/27 06:50:58;;;;;;;10.90;6.80;;;;;;;;;;5031596;28;20496;-66
2022/01/27 06:53:24;;;;;;;10.90;5.95;;;;;;;;;;5031307;28;20028;-67
2022/01/27 06:55:51;;;;;;;10.57;6.50;;;;;;;;;;5031432;28;20029;-69
2022/01/27 06:58:17;;;;;;;12.93;6.93;;;;;;;;;;5032031;28;20018;-66
2022/01/27 07:00:43;;;;;;;11.85;7.05;;;;;;;;;;5031536;28;20025;-67
2022/01/27 07:03:09;;;;;;;19.90;6.55;;;;;;;;;;5031622;28;20037;-66
2022/01/27 07:05:36;;;;;;;11.25;6.47;;;;;;;;;;5031802;28;20470;-66
2022/01/27 07:08:02;;;;;;;14.32;7.03;;;;;;;;;;5032397;28;20028;-68
2022/01/27 07:10:28;;;;;;;12.80;7.22;;;;;;;;;;5032855;28;20064;-67
2022/01/27 07:12:55;;;;;;;11.80;6.55;;;;;;;;;;5032887;28;20036;-68
2022/01/27 07:15:21;;;;;;;10.93;7.05;;;;;;;;;;5032911;28;20496;-69
2022/01/27 07:17:47;;;;;;;11.18;6.45;;;;;;;;;;5032778;28;20083;-70
2022/01/27 07:20:13;;;;;;;11.27;6.75;;;;;;;;;;5032334;28;20504;-69
2022/01/27 07:22:39;;;;;;;10.27;6.53;;;;;;;;;;5032826;28;20029;-68
2022/01/27 07:25:06;;;;;;;10.07;6.35;;;;;;;;;;5032530;28;20507;-68
2022/01/27 07:27:33;;;;;;;10.48;6.47;;;;;;;;;;5032696;28;20026;-69
2022/01/27 07:29:59;;;;;;;13.77;6.93;;;;;;;;;;5032362;28;20115;-70
2022/01/27 07:32:25;;;;;;;11.90;6.95;;;;;;;;;;5032627;28;20532;-67
2022/01/27 07:34:52;;;;;;;16.45;7.38;;;;;;;;;;5032561;28;20412;-68
2022/01/27 07:37:18;;;;;;;10.30;6.28;;;;;;;;;;5032312;28;20026;-68
2022/01/27 07:39:44;;;;;;;10.93;6.32;;;;;;;;;;5032324;28;20041;-68
2022/01/27 07:42:10;;;;;;;10.88;6.68;;;;;;;;;;5032275;28;20021;-68
2022/01/27 07:44:36;;;;;;;14.85;7.05;;;;;;;;;;5032124;28;20021;-68
2022/01/27 07:47:02;;;;;;;11.63;6.95;;;;;;;;;;5032164;28;20392;-70
2022/01/27 07:49:29;;;;;;;11.57;7.28;;;;;;;;;;5032036;28;20523;-68
2022/01/27 07:51:55;;;;;;;12.68;6.95;;;;;;;;;;5030916;28;20493;-69
2022/01/27 07:54:21;;;;;;;11.15;6.72;;;;;;;;;;5032251;28;20105;-69
2022/01/27 07:56:47;;;;;;;11.55;6.95;;;;;;;;;;5031994;28;20025;-69
2022/01/27 07:59:13;;;;;;;9.90;6.38;;;;;;;;;;5031893;28;20086;-69
2022/01/27 08:01:39;;;;;;;10.00;6.28;;;;;;;;;;5032244;28;20529;-68
2022/01/27 08:04:05;;;;;;;10.35;6.43;;;;;;;;;;5030689;28;20029;-69
2022/01/27 08:06:31;;;;;;;10.82;7.07;;;;;;;;;;5031998;28;20586;-69
2022/01/27 08:08:57;;;;;;;12.65;6.85;;;;;;;;;;5031615;28;20021;-69
2022/01/27 08:11:23;;;;;;;13.65;7.10;;;;;;;;;;5031903;28;20033;-68
2022/01/27 08:13:49;;;;;;;11.93;7.53;;;;;;;;;;5031742;28;20025;-69
2022/01/27 08:16:15;;;;;;;11.27;6.63;;;;;;;;;;5031496;28;20072;-68
2022/01/27 08:18:42;;;;;;;18.35;7.25;;;;;;;;;;5031442;28;20025;-68
2022/01/27 08:21:08;;;;;;;24.20;7.35;;;;;;;;;;5031068;28;20053;-68
2022/01/27 08:23:34;;;;;;;17.15;7.35;;;;;;;;;;5031466;28;20028;-68
2022/01/27 08:26:05;;;;;;;17.90;6.65;;;;;;;;;;5031442;28;20594;-68
2022/01/27 08:28:38;;;;;;;19.20;8.70;;;;;;;;;;5029995;28;20067;-66
2022/01/27 08:31:04;;;;;;;430.88;165.63;;;;;;;;;;5031562;28;20034;-67
2022/01/27 08:33:37;;;;;;;194.85;71.03;;;;;;;;;;5031525;28;20024;-68
2022/01/27 08:36:03;;;;;;;169.75;61.55;;;;;;;;;;5030132;28;20025;-68
2022/01/27 08:38:30;;;;;;;176.20;69.63;;;;;;;;;;5047176;28;20590;-64
2022/01/27 08:40:56;;;;;;;172.05;62.97;;;;;;;;;;5048099;28;20040;-67
2022/01/27 08:43:22;;;;;;;142.68;56.30;;;;;;;;;;5031607;28;20073;-66
2022/01/27 08:45:50;;;;;;;134.45;53.00;;;;;;;;;;5031195;28;20032;-68
2022/01/27 08:48:18;;;;;;;141.90;52.17;;;;;;;;;;5030992;28;20388;-68
2022/01/27 08:50:52;;;;;;;130.30;48.65;;;;;;;;;;5030854;28;20029;-64
2022/01/27 08:53:18;;;;;;;120.32;47.05;;;;;;;;;;5030882;28;20107;-67
2022/01/27 08:55:45;;;;;;;113.32;43.50;;;;;;;;;;5029731;28;20622;-68
2022/01/27 08:58:14;;;;;;;104.88;40.90;;;;;;;;;;5030848;28;20113;-69
2022/01/27 09:00:40;;;;;;;94.78;38.15;;;;;;;;;;5031400;28;20477;-64
2022/01/27 09:03:06;;;;;;;91.18;38.25;;;;;;;;;;5030863;28;20032;-68
2022/01/27 09:05:32;;;;;;;89.75;36.25;;;;;;;;;;5031044;28;20053;-68
2022/01/27 09:07:58;;;;;;;84.57;34.53;;;;;;;;;;5030895;28;20022;-65
2022/01/27 09:10:31;;;;;;;79.28;33.28;;;;;;;;;;5030952;28;20033;-65
2022/01/27 09:12:58;;;;;;;71.80;30.90;;;;;;;;;;5030806;28;20044;-67
2022/01/27 09:15:24;;;;;;;70.70;30.25;;;;;;;;;;5046518;28;20520;-65
2022/01/27 09:17:50;;;;;;;70.22;28.42;;;;;;;;;;5030889;28;20451;-67
2022/01/27 09:20:16;;;;;;;72.22;29.20;;;;;;;;;;5030765;28;20516;-68
2022/01/27 09:22:43;;;;;;;61.75;25.13;;;;;;;;;;5031048;28;20029;-68
2022/01/27 09:25:20;;;;;;;63.00;25.98;;;;;;;;;;5042409;28;20013;-68
2022/01/27 09:27:47;;;;;;;60.03;25.27;;;;;;;;;;5029476;28;20044;-68
2022/01/27 09:30:17;;;;;;;64.32;25.65;;;;;;;;;;5042806;28;20114;-68
2022/01/27 09:32:44;;;;;;;58.00;24.50;;;;;;;;;;5052916;28;20044;-68
2022/01/27 09:35:10;;;;;;;58.33;23.90;;;;;;;;;;5054444;28;20017;-68
2022/01/27 09:37:36;;;;;;;52.67;22.83;;;;;;;;;;5054471;28;20025;-67
2022/01/27 09:40:05;;;;;;;49.17;21.45;;;;;;;;;;5053221;28;20033;-67
2022/01/27 09:42:34;;;;;;;44.28;19.92;;;;;;;;;;5040978;28;20030;-66
2022/01/27 09:45:03;;;;;;;48.35;19.73;;;;;;;;;;5034246;28;20082;-67
2022/01/27 09:47:32;;;;;;;49.35;20.55;;;;;;;;;;5034106;28;20123;-67
2022/01/27 09:52:40;;;;;;;37.90;17.63;;;;;;;;;;5033966;28;20033;-67
2022/01/27 09:55:06;;;;;;;40.47;18.17;;;;;;;;;;5041501;28;20036;-68
2022/01/27 09:57:32;;;;;;;36.53;16.77;;;;;;;;;;5054161;28;20021;-66
2022/01/27 09:59:59;;;;;;;30.92;16.35;;;;;;;;;;5054103;28;20025;-64
2022/01/27 10:02:28;;;;;;;33.22;15.73;;;;;;;;;;5053953;28;20029;-63
2022/01/27 10:04:57;;;;;;;32.60;15.15;;;;;;;;;;5053939;28;20025;-63
2022/01/27 10:07:30;;;;;;;34.38;15.00;;;;;;;;;;5052597;28;20041;-63
2022/01/27 10:10:14;;;;;;;32.90;15.02;;;;;;;;;;5053876;28;20037;-63
2022/01/27 10:12:47;;;;;;;32.40;14.13;;;;;;;;;;5054601;28;20024;-66
2022/01/27 10:15:18;;;;;;;30.88;14.88;;;;;;;;;;5052018;28;20013;-66
2022/01/27 10:18:02;;;;;;;27.88;12.88;;;;;;;;;;5054201;28;20488;-66
2022/01/27 10:20:28;;;;;;;25.20;12.20;;;;;;;;;;5054434;28;20056;-67
2022/01/27 10:23:10;;;;;;;28.27;12.65;;;;;;;;;;5052881;28;20102;-68
2022/01/27 10:25:46;;;;;;;27.83;12.00;;;;;;;;;;5054420;28;20167;-66
2022/01/27 10:28:31;;;;;;;24.10;11.90;;;;;;;;;;5054255;28;20074;-65
2022/01/27 10:31:05;;;;;;;24.85;12.10;;;;;;;;;;5054177;28;20040;-66
2022/01/27 10:33:41;;;;;;;26.20;11.32;;;;;;;;;;5054321;28;20498;-68
2022/01/27 10:36:21;;;;;;;25.67;11.55;;;;;;;;;;5054149;28;20025;-66
2022/01/27 10:38:49;;;;;;;21.05;10.73;;;;;;;;;;5054167;28;20489;-70
2022/01/27 10:41:15;;;;;;;23.30;11.05;;;;;;;;;;5054085;28;20028;-68
2022/01/27 10:43:41;;;;;;;19.17;10.00;;;;;;;;;;5052997;28;20024;-68
2022/01/27 10:48:49;;;;;;;19.92;9.68;;;;;;;;;;5053894;28;20036;-68
2022/01/27 10:51:22;;;;;;;20.05;9.90;;;;;;;;;;5053784;28;20029;-66
2022/01/27 10:54:03;;;;;;;20.45;10.40;;;;;;;;;;5053699;28;20092;-67
2022/01/27 10:56:31;;;;;;;18.48;9.15;;;;;;;;;;5053621;28;20114;-67
2022/01/27 10:58:58;;;;;;;20.13;10.00;;;;;;;;;;5053437;28;20050;-70
2022/01/27 11:01:24;;;;;;;17.88;9.70;;;;;;;;;;5053495;28;20075;-63
2022/01/27 11:03:51;;;;;;;18.83;9.35;;;;;;;;;;5053768;28;20025;-66
2022/01/27 11:06:17;;;;;;;20.85;9.10;;;;;;;;;;5072133;28;20055;-69
2022/01/27 11:08:43;;;;;;;15.70;9.23;;;;;;;;;;5071964;28;20103;-67
2022/01/27 11:11:09;;;;;;;17.65;8.55;;;;;;;;;;5072124;28;20033;-66
2022/01/27 11:13:35;;;;;;;18.08;8.55;;;;;;;;;;5066310;28;20021;-66
2022/01/27 11:16:04;;;;;;;15.85;8.98;;;;;;;;;;5034259;28;20105;-66
2022/01/27 11:18:31;;;;;;;15.57;8.30;;;;;;;;;;5052500;28;20562;-62
2022/01/27 11:21:08;;;;;;;16.00;8.38;;;;;;;;;;5052951;28;20045;-63
2022/01/27 11:26:09;;;;;;;18.95;8.43;;;;;;;;;;5052026;28;20433;-64
2022/01/27 11:28:36;;;;;;;14.40;8.00;;;;;;;;;;5051022;28;20048;-63
2022/01/27 11:31:21;;;;;;;14.25;8.18;;;;;;;;;;5051454;28;20120;-63
2022/01/27 11:33:58;;;;;;;16.60;7.68;;;;;;;;;;5052055;28;20043;-63
2022/01/27 11:36:27;;;;;;;12.43;6.43;;;;;;;;;;5050936;28;20024;-62
2022/01/27 11:38:53;;;;;;;12.52;5.97;;;;;;;;;;5052185;28;20082;-63
2022/01/27 11:41:34;;;;;;;11.18;5.25;;;;;;;;;;5052341;28;20013;-67
2022/01/27 11:44:19;;;;;;;15.00;5.72;;;;;;;;;;5051971;28;20024;-62
2022/01/27 11:47:05;;;;;;;10.23;5.28;;;;;;;;;;5052171;28;20061;-63
2022/01/27 11:49:55;;;;;;;10.90;5.22;;;;;;;;;;5051498;28;20025;-65
2022/01/27 11:52:32;;;;;;;9.82;4.72;;;;;;;;;;5051741;28;20021;-66
2022/01/27 11:55:17;;;;;;;11.45;4.93;;;;;;;;;;5051875;28;20379;-63
2022/01/27 11:57:45;;;;;;;9.60;5.25;;;;;;;;;;5051689;28;20028;-64
2022/01/27 12:00:13;;;;;;;20.00;10.77;;;;;;;;;;5050633;28;20447;-63
2022/01/27 12:02:58;;;;;;;25.05;15.70;;;;;;;;;;5050548;28;20039;-64
2022/01/27 12:05:24;;;;;;;22.20;12.93;;;;;;;;;;5048028;28;20025;-65
2022/01/27 12:08:12;;;;;;;29.60;15.15;;;;;;;;;;5051773;28;20045;-64
2022/01/27 12:10:48;;;;;;;24.48;12.63;;;;;;;;;;5051546;28;20162;-63
2022/01/27 12:16:56;;;;;;;21.90;11.07;;;;;;;;;;5051369;28;20021;-64
2022/01/27 12:19:02;;;;;;;20.73;10.18;;;;;;;;;;5047761;28;20124;-63
2022/01/27 12:21:32;;;;;;;16.88;8.73;;;;;;;;;;5051054;28;20492;-70
2022/01/27 12:24:25;;;;;;;18.55;9.80;;;;;;;;;;5051340;28;20098;-62
2022/01/27 12:27:04;;;;;;;19.17;9.75;;;;;;;;;;5050306;28;20033;-61
2022/01/27 12:29:37;;;;;;;14.50;8.45;;;;;;;;;;5051198;28;20044;-64
2022/01/27 12:32:22;;;;;;;14.48;8.10;;;;;;;;;;5049985;28;20070;-64
2022/01/27 12:34:58;;;;;;;15.68;8.65;;;;;;;;;;5051333;28;20480;-62
2022/01/27 12:37:25;;;;;;;17.38;8.23;;;;;;;;;;5049887;28;20033;-62
2022/01/27 12:39:58;;;;;;;15.30;7.65;;;;;;;;;;5051375;28;20025;-68
2022/01/27 12:42:29;;;;;;;16.15;8.27;;;;;;;;;;5051258;28;20017;-67
2022/01/27 12:44:59;;;;;;;16.67;8.10;;;;;;;;;;5050254;28;20045;-68
2022/01/27 12:47:26;;;;;;;14.95;7.70;;;;;;;;;;5051370;28;20492;-63
2022/01/27 12:50:06;;;;;;;11.75;6.40;;;;;;;;;;5051300;28;20048;-66
2022/01/27 12:52:38;;;;;;;11.90;6.78;;;;;;;;;;5051150;28;20071;-63
2022/01/27 12:55:05;;;;;;;12.13;6.65;;;;;;;;;;5050504;28;20031;-62
2022/01/27 12:57:32;;;;;;;14.55;7.38;;;;;;;;;;5051091;28;20074;-65
2022/01/27 12:59:59;;;;;;;13.60;7.55;;;;;;;;;;5050182;28;20047;-62
2022/01/27 13:02:27;;;;;;;15.48;7.75;;;;;;;;;;5049676;28;20453;-63
2022/01/27 13:04:54;;;;;;;14.32;6.63;;;;;;;;;;5049648;28;20473;-63
2022/01/27 13:07:21;;;;;;;14.73;7.68;;;;;;;;;;5054112;28;20384;-62
2022/01/27 13:09:54;;;;;;;11.00;5.65;;;;;;;;;;5054833;28;20029;-64
2022/01/27 13:12:25;;;;;;;11.88;6.82;;;;;;;;;;5055120;28;20044;-62
2022/01/27 13:14:57;;;;;;;10.55;5.90;;;;;;;;;;5041849;28;20030;-63
2022/01/27 13:17:31;;;;;;;10.60;6.10;;;;;;;;;;5035104;28;20045;-62
2022/01/27 13:20:09;;;;;;;12.65;5.65;;;;;;;;;;5034738;28;20022;-63
2022/01/27 13:22:45;;;;;;;10.95;5.88;;;;;;;;;;5034966;28;20389;-63
2022/01/27 13:25:11;;;;;;;10.45;5.55;;;;;;;;;;5034922;28;20029;-63
2022/01/27 13:27:37;;;;;;;10.45;5.75;;;;;;;;;;5033580;28;20025;-64
2022/01/27 13:30:04;;;;;;;9.63;5.55;;;;;;;;;;5034626;28;20040;-64
2022/01/27 13:32:30;;;;;;;8.95;5.43;;;;;;;;;;5034657;28;20026;-63
2022/01/27 13:34:56;;;;;;;10.05;4.78;;;;;;;;;;5034656;28;20022;-64
2022/01/27 13:37:29;;;;;;;9.02;5.28;;;;;;;;;;5034919;28;20068;-64
2022/01/27 13:42:22;;;;;;;8.50;4.88;;;;;;;;;;5034173;28;20515;-62
2022/01/27 13:44:52;;;;;;;9.60;5.40;;;;;;;;;;5032994;28;20461;-65
2022/01/27 13:47:24;;;;;;;11.98;5.10;;;;;;;;;;5034543;28;20021;-63
2022/01/27 13:49:51;;;;;;;8.87;4.83;;;;;;;;;;5034382;28;20038;-64
2022/01/27 13:52:18;;;;;;;8.98;5.25;;;;;;;;;;5034348;28;20025;-63
2022/01/27 13:54:48;;;;;;;6.85;4.20;;;;;;;;;;5034276;28;20025;-64
2022/01/27 13:57:17;;;;;;;7.63;4.32;;;;;;;;;;5034114;28;20018;-65
2022/01/27 13:59:59;;;;;;;10.20;5.43;;;;;;;;;;5032783;28;20502;-63
2022/01/27 14:02:28;;;;;;;8.50;5.07;;;;;;;;;;5033969;28;20026;-62
2022/01/27 14:04:56;;;;;;;8.07;4.75;;;;;;;;;;5033650;28;20022;-63
2022/01/27 14:07:29;;;;;;;9.43;5.03;;;;;;;;;;5032614;28;20436;-63
2022/01/27 14:09:55;;;;;;;7.85;4.20;;;;;;;;;;5032426;28;20451;-63
2022/01/27 14:12:30;;;;;;;8.75;4.50;;;;;;;;;;5037182;28;20025;-64
2022/01/27 14:14:57;;;;;;;8.27;4.53;;;;;;;;;;5073551;28;20023;-65
2022/01/27 14:17:26;;;;;;;9.65;5.10;;;;;;;;;;5072429;28;20560;-66
2022/01/27 14:19:53;;;;;;;7.30;3.78;;;;;;;;;;5034835;28;20025;-67
2022/01/27 14:22:20;;;;;;;9.82;5.15;;;;;;;;;;5034307;28;20064;-64
2022/01/27 14:25:02;;;;;;;10.18;5.00;;;;;;;;;;5032998;28;20034;-63
2022/01/27 14:27:32;;;;;;;9.40;4.83;;;;;;;;;;5033446;28;20029;-65
2022/01/27 14:29:59;;;;;;;9.43;5.20;;;;;;;;;;5032766;28;20088;-62
2022/01/27 14:32:25;;;;;;;8.60;5.20;;;;;;;;;;5032874;28;20022;-67
2022/01/27 14:34:51;;;;;;;8.40;4.90;;;;;;;;;;5040569;28;20029;-64
2022/01/27 14:37:17;;;;;;;8.43;4.82;;;;;;;;;;5053703;28;20039;-62
2022/01/27 14:39:43;;;;;;;8.43;5.15;;;;;;;;;;5039912;28;20026;-66
2022/01/27 14:42:11;;;;;;;8.65;5.25;;;;;;;;;;5033600;28;20096;-70
2022/01/27 14:44:37;;;;;;;10.32;5.00;;;;;;;;;;5033903;28;20071;-70
2022/01/27 14:47:06;;;;;;;7.88;4.35;;;;;;;;;;5033742;28;20025;-63
2022/01/27 14:49:32;;;;;;;8.80;4.68;;;;;;;;;;5033357;28;20033;-68
2022/01/27 14:51:58;;;;;;;8.80;4.82;;;;;;;;;;5033467;28;20025;-67
2022/01/27 14:54:24;;;;;;;8.45;5.03;;;;;;;;;;5032819;28;20029;-65
2022/01/27 14:56:51;;;;;;;8.43;4.75;;;;;;;;;;5044012;28;20083;-69
2022/01/27 14:59:17;;;;;;;8.07;4.68;;;;;;;;;;5052741;28;20024;-64
2022/01/27 15:01:43;;;;;;;9.15;5.35;;;;;;;;;;5051982;28;20021;-63
2022/01/27 15:04:09;;;;;;;8.20;4.50;;;;;;;;;;5053134;28;20021;-61
2022/01/27 15:06:36;;;;;;;10.38;5.30;;;;;;;;;;5051586;28;20017;-64
2022/01/27 15:09:02;;;;;;;9.85;5.30;;;;;;;;;;5053048;28;20484;-62
2022/01/27 15:11:28;;;;;;;9.60;5.30;;;;;;;;;;5052937;28;20496;-64
2022/01/27 15:14:01;;;;;;;13.85;5.30;;;;;;;;;;5041321;28;20491;-66
2022/01/27 15:19:36;;;;;;;9.43;4.93;;;;;;;;;;5042146;28;20107;-62
2022/01/27 15:22:03;;;;;;;8.73;5.13;;;;;;;;;;5042532;28;20043;-61
2022/01/27 15:24:29;;;;;;;8.10;4.93;;;;;;;;;;5034181;28;20026;-62
2022/01/27 15:26:56;;;;;;;9.80;5.32;;;;;;;;;;5049053;28;20017;-61
2022/01/27 15:29:22;;;;;;;9.30;5.35;;;;;;;;;;5037627;28;20110;-62
2022/01/27 15:31:49;;;;;;;8.40;4.75;;;;;;;;;;5044420;28;20028;-61
2022/01/27 15:34:16;;;;;;;9.98;5.70;;;;;;;;;;5069285;28;20028;-61
2022/01/27 15:36:47;;;;;;;9.10;4.82;;;;;;;;;;5043574;28;20036;-65
2022/01/27 15:39:15;;;;;;;11.30;5.63;;;;;;;;;;5032777;28;20030;-65